METAR Data
IDs: Format: Raw Decoded Include TAF

Data at: 0343 UTC 06 Dec 2019

METAR for:LEBZ (Badajoz Arpt, --, SP)
Text:No data found

TAF for:LEBZ (Badajoz Arpt, --, SP) issued at 2300 UTC 05 Dec 2019
Text:TAF LEBZ 052300Z 0600/0624 07006KT CAVOK TX17/0615Z TN06/0607Z
Forecast period:0000 UTC 06 December 2019 to 0000 UTC 07 December 2019
Forecast type:FROM: standard forecast or significant change
Winds:from the ENE (70 degrees) at 7 MPH (6 knots; 3.1 m/s)
Visibility:6 or more sm (10+ km)
Clouds:missing